Time,TemperatureF,DewpointF,PressureIn,WindDirection,WindDirectionDegrees,WindSpeedMPH,WindSpeedGustMPH,Humidity,HourlyPrecipIn,Conditions,Clouds,dailyrainin,SoftwareType,DateUTC
2013-08-08 00:02:00,77.5,56.8,30.06,WNW,300,0.0,2.0,49,0.00,,,0.00,meteohub,2013-08-08 06:02:00,
2013-08-08 00:07:00,77.4,56.7,30.06,WNW,300,1.0,2.0,49,0.00,,,0.00,meteohub,2013-08-08 06:07:00,
2013-08-08 00:12:00,77.0,57.0,30.06,WNW,300,1.0,2.0,50,0.00,,,0.00,meteohub,2013-08-08 06:12:00,
2013-08-08 00:17:00,76.5,56.5,30.06,WNW,300,0.0,3.0,50,0.00,,,0.00,meteohub,2013-08-08 06:17:00,
2013-08-08 00:22:00,76.3,56.8,30.06,WNW,300,0.0,3.0,51,0.00,,,0.00,meteohub,2013-08-08 06:22:00,
2013-08-08 00:27:00,76.3,56.8,30.06,WNW,300,0.0,2.0,51,0.00,,,0.00,meteohub,2013-08-08 06:27:00,
2013-08-08 00:32:00,76.3,56.8,30.06,WNW,300,0.0,1.0,51,0.00,,,0.00,meteohub,2013-08-08 06:32:00,
2013-08-08 00:37:00,75.7,56.3,30.06,WNW,300,0.0,0.0,51,0.00,,,0.00,meteohub,2013-08-08 06:37:00,
2013-08-08 00:42:00,75.4,56.5,30.06,WNW,300,0.0,0.0,52,0.00,,,0.00,meteohub,2013-08-08 06:42:00,
2013-08-08 00:47:00,74.5,56.3,30.07,WNW,300,0.0,1.0,53,0.00,,,0.00,meteohub,2013-08-08 06:47:00,
2013-08-08 00:52:00,73.6,56.5,30.07,WNW,300,0.0,2.0,55,0.00,,,0.00,meteohub,2013-08-08 06:52:00,
2013-08-08 00:57:00,73.2,56.1,30.07,WNW,300,1.0,2.0,55,0.00,,,0.00,meteohub,2013-08-08 06:57:00,
2013-08-08 01:02:00,73.2,56.1,30.07,SW,217,5.0,5.0,55,0.00,,,0.00,meteohub,2013-08-08 07:02:00,
2013-08-08 01:07:00,73.4,56.3,30.06,SW,215,0.0,6.0,55,0.00,,,0.00,meteohub,2013-08-08 07:07:00,
2013-08-08 01:12:00,73.9,56.3,30.06,SW,215,1.0,6.0,54,0.00,,,0.00,meteohub,2013-08-08 07:12:00,
2013-08-08 01:17:00,74.3,56.7,30.06,SW,215,0.0,6.0,54,0.00,,,0.00,meteohub,2013-08-08 07:17:00,
2013-08-08 01:22:00,74.5,56.7,30.06,SW,215,0.0,3.0,54,0.00,,,0.00,meteohub,2013-08-08 07:22:00,
2013-08-08 01:27:00,74.7,56.8,30.06,SW,215,0.0,3.0,54,0.00,,,0.00,meteohub,2013-08-08 07:27:00,
2013-08-08 01:32:00,74.7,56.8,30.06,SW,215,0.0,1.0,54,0.00,,,0.00,meteohub,2013-08-08 07:32:00,
2013-08-08 01:37:00,74.3,56.7,30.06,SW,215,0.0,1.0,54,0.00,,,0.00,meteohub,2013-08-08 07:37:00,
2013-08-08 01:42:00,73.9,56.8,30.06,SW,215,0.0,2.0,55,0.00,,,0.00,meteohub,2013-08-08 07:42:00,
2013-08-08 01:47:00,74.1,56.8,30.06,SW,215,0.0,2.0,55,0.00,,,0.00,meteohub,2013-08-08 07:47:00,
2013-08-08 01:52:00,73.9,56.3,30.06,SW,215,2.0,3.0,54,0.00,,,0.00,meteohub,2013-08-08 07:52:00,
2013-08-08 01:57:00,74.1,56.5,30.06,SW,215,2.0,3.0,54,0.00,,,0.00,meteohub,2013-08-08 07:57:00,
2013-08-08 02:02:00,74.3,56.7,30.06,SW,215,0.0,3.0,54,0.00,,,0.00,meteohub,2013-08-08 08:02:00,
2013-08-08 02:07:00,74.1,56.5,30.06,SW,215,0.0,3.0,54,0.00,,,0.00,meteohub,2013-08-08 08:07:00,
2013-08-08 02:12:00,73.9,56.3,30.06,SW,215,0.0,3.0,54,0.00,,,0.00,meteohub,2013-08-08 08:12:00,
2013-08-08 02:17:00,73.8,56.7,30.06,SW,215,0.0,2.0,55,0.00,,,0.00,meteohub,2013-08-08 08:17:00,
2013-08-08 02:22:00,73.8,56.7,30.06,SW,215,4.0,4.0,55,0.00,,,0.00,meteohub,2013-08-08 08:22:00,
2013-08-08 02:27:00,72.5,57.4,30.06,NNE,30,0.0,5.0,59,0.00,,,0.00,meteohub,2013-08-08 08:27:00,
2013-08-08 02:32:00,71.6,57.4,30.06,NNE,30,0.0,5.0,61,0.00,,,0.00,meteohub,2013-08-08 08:32:00,
2013-08-08 02:37:00,71.2,57.0,30.06,NNE,30,0.0,5.0,61,0.00,,,0.00,meteohub,2013-08-08 08:37:00,
2013-08-08 02:43:00,71.2,57.0,30.06,NNE,30,0.0,2.0,61,0.00,,,0.00,meteohub,2013-08-08 08:43:00,
2013-08-08 02:49:00,71.4,57.7,30.06,NNE,30,1.0,2.0,62,0.00,,,0.00,meteohub,2013-08-08 08:49:00,
2013-08-08 02:55:00,71.4,57.2,30.06,NNE,30,3.0,4.0,61,0.00,,,0.00,meteohub,2013-08-08 08:55:00,
2013-08-08 03:00:00,71.6,57.4,30.06,NNE,30,2.0,4.0,61,0.00,,,0.00,meteohub,2013-08-08 09:00:00,
2013-08-08 03:06:00,71.8,57.6,30.06,NNE,30,1.0,4.0,61,0.00,,,0.00,meteohub,2013-08-08 09:06:00,
2013-08-08 03:12:00,71.8,57.6,30.06,NNW,336,2.0,4.0,61,0.00,,,0.00,meteohub,2013-08-08 09:12:00,
2013-08-08 03:17:00,71.4,57.2,30.06,NNW,336,1.0,5.0,61,0.00,,,0.00,meteohub,2013-08-08 09:17:00,
2013-08-08 03:22:00,71.2,57.0,30.06,NNW,336,1.0,5.0,61,0.00,,,0.00,meteohub,2013-08-08 09:22:00,
2013-08-08 03:27:00,70.9,56.8,30.06,NNW,336,0.0,5.0,61,0.00,,,0.00,meteohub,2013-08-08 09:27:00,
2013-08-08 03:32:00,70.9,57.2,30.06,NNW,336,0.0,2.0,62,0.00,,,0.00,meteohub,2013-08-08 09:32:00,
2013-08-08 03:37:00,70.9,57.2,30.06,NNW,336,0.0,2.0,62,0.00,,,0.00,meteohub,2013-08-08 09:37:00,
2013-08-08 03:42:00,70.7,57.0,30.06,NNW,336,0.0,2.0,62,0.00,,,0.00,meteohub,2013-08-08 09:42:00,
2013-08-08 03:47:00,70.9,57.2,30.06,NNW,336,2.0,2.0,62,0.00,,,0.00,meteohub,2013-08-08 09:47:00,
2013-08-08 03:53:00,70.9,57.2,30.06,NNW,336,0.0,3.0,62,0.00,,,0.00,meteohub,2013-08-08 09:53:00,
2013-08-08 03:58:00,70.7,57.0,30.06,NNW,336,0.0,3.0,62,0.00,,,0.00,meteohub,2013-08-08 09:58:00,
2013-08-08 04:04:00,70.5,56.8,30.06,NNW,336,1.0,3.0,62,0.00,,,0.00,meteohub,2013-08-08 10:04:00,
2013-08-08 04:10:00,70.7,57.0,30.06,NNW,336,1.0,3.0,62,0.00,,,0.00,meteohub,2013-08-08 10:10:00,
2013-08-08 04:16:00,70.5,56.5,30.06,NNW,336,2.0,3.0,61,0.00,,,0.00,meteohub,2013-08-08 10:16:00,
2013-08-08 04:22:00,70.5,56.5,30.06,NNW,336,0.0,3.0,61,0.00,,,0.00,meteohub,2013-08-08 10:22:00,
2013-08-08 04:27:00,70.9,57.2,30.06,NNW,336,0.0,2.0,62,0.00,,,0.00,meteohub,2013-08-08 10:27:00,
2013-08-08 04:32:00,71.1,56.8,30.06,NNW,336,0.0,2.0,61,0.00,,,0.00,meteohub,2013-08-08 10:32:00,
2013-08-08 04:37:00,71.1,56.8,30.06,NNW,336,0.0,0.0,61,0.00,,,0.00,meteohub,2013-08-08 10:37:00,
2013-08-08 04:42:00,70.9,56.8,30.06,NNW,336,0.0,1.0,61,0.00,,,0.00,meteohub,2013-08-08 10:42:00,
2013-08-08 04:47:00,70.7,56.7,30.06,NNW,336,2.0,2.0,61,0.00,,,0.00,meteohub,2013-08-08 10:47:00,
2013-08-08 04:52:00,70.5,56.5,30.06,NNW,336,1.0,2.0,61,0.00,,,0.00,meteohub,2013-08-08 10:52:00,
2013-08-08 04:57:00,70.5,56.8,30.06,NNW,336,0.0,2.0,62,0.00,,,0.00,meteohub,2013-08-08 10:57:00,
2013-08-08 05:02:00,70.5,56.8,30.06,NNW,336,0.0,2.0,62,0.00,,,0.00,meteohub,2013-08-08 11:02:00,
2013-08-08 05:07:00,70.7,57.0,30.06,NNW,336,0.0,1.0,62,0.00,,,0.00,meteohub,2013-08-08 11:07:00,
2013-08-08 05:12:00,70.7,55.2,30.06,NNW,335,1.0,2.0,58,0.00,,,0.00,meteohub,2013-08-08 11:12:00,
2013-08-08 05:17:00,70.5,54.5,30.06,NNW,333,2.0,4.0,57,0.00,,,0.00,meteohub,2013-08-08 11:17:00,
2013-08-08 05:22:00,70.2,54.7,30.07,NNW,333,2.0,5.0,58,0.00,,,0.00,meteohub,2013-08-08 11:22:00,
2013-08-08 05:27:00,69.8,54.3,30.07,NNW,333,1.0,5.0,58,0.00,,,0.00,meteohub,2013-08-08 11:27:00,
2013-08-08 05:32:00,69.8,54.3,30.07,NNW,333,2.0,5.0,58,0.00,,,0.00,meteohub,2013-08-08 11:32:00,
2013-08-08 05:37:00,70.0,54.0,30.07,NNW,333,1.0,4.0,57,0.00,,,0.00,meteohub,2013-08-08 11:37:00,
2013-08-08 05:42:00,70.0,55.0,30.07,NNW,333,0.0,3.0,59,0.00,,,0.00,meteohub,2013-08-08 11:42:00,
2013-08-08 05:47:00,69.4,54.5,30.07,NNW,333,0.0,3.0,59,0.00,,,0.00,meteohub,2013-08-08 11:47:00,
2013-08-08 05:52:00,69.6,54.1,30.07,NNW,333,0.0,3.0,58,0.00,,,0.00,meteohub,2013-08-08 11:52:00,
2013-08-08 05:57:00,69.6,54.1,30.07,NNW,333,2.0,3.0,58,0.00,,,0.00,meteohub,2013-08-08 11:57:00,
2013-08-08 06:02:00,69.6,54.1,30.07,NNW,333,2.0,4.0,58,0.00,,,0.00,meteohub,2013-08-08 12:02:00,
2013-08-08 06:07:00,69.4,54.0,30.07,NNW,333,2.0,4.0,58,0.00,,,0.00,meteohub,2013-08-08 12:07:00,
2013-08-08 06:12:00,69.4,54.0,30.08,NNW,333,2.0,3.0,58,0.00,,,0.00,meteohub,2013-08-08 12:12:00,
2013-08-08 06:17:00,69.4,54.0,30.08,NNW,333,2.0,3.0,58,0.00,,,0.00,meteohub,2013-08-08 12:17:00,
2013-08-08 06:22:00,69.6,54.1,30.08,NNW,333,2.0,3.0,58,0.00,,,0.00,meteohub,2013-08-08 12:22:00,
2013-08-08 06:27:00,69.8,54.0,30.08,NNW,333,3.0,3.0,57,0.00,,,0.00,meteohub,2013-08-08 12:27:00,
2013-08-08 06:32:00,70.2,53.8,30.08,NNW,333,3.0,4.0,56,0.00,,,0.00,meteohub,2013-08-08 12:32:00,
2013-08-08 06:37:00,70.2,53.2,30.08,NNW,333,1.0,4.0,55,0.00,,,0.00,meteohub,2013-08-08 12:37:00,
2013-08-08 06:42:00,70.3,53.4,30.08,NNW,333,1.0,4.0,55,0.00,,,0.00,meteohub,2013-08-08 12:42:00,
2013-08-08 06:47:00,70.3,53.4,30.08,NNW,333,2.0,4.0,55,0.00,,,0.00,meteohub,2013-08-08 12:47:00,
2013-08-08 06:52:00,70.2,53.2,30.08,NNW,333,2.0,3.0,55,0.00,,,0.00,meteohub,2013-08-08 12:52:00,
2013-08-08 06:57:00,70.2,53.2,30.08,NNW,333,3.0,3.0,55,0.00,,,0.00,meteohub,2013-08-08 12:57:00,
2013-08-08 07:02:00,70.3,53.4,30.09,NNW,331,3.0,5.0,55,0.00,,,0.00,meteohub,2013-08-08 13:02:00,
2013-08-08 07:07:00,70.9,54.0,30.09,NNW,331,1.0,5.0,55,0.00,,,0.00,meteohub,2013-08-08 13:07:00,
2013-08-08 07:12:00,71.1,53.6,30.09,NNW,331,1.0,5.0,54,0.00,,,0.00,meteohub,2013-08-08 13:12:00,
2013-08-08 07:17:00,71.2,53.8,30.09,NNW,331,0.0,3.0,54,0.00,,,0.00,meteohub,2013-08-08 13:17:00,
2013-08-08 07:22:00,71.2,54.3,30.09,NNW,331,1.0,4.0,55,0.00,,,0.00,meteohub,2013-08-08 13:22:00,
2013-08-08 07:27:00,71.1,54.5,30.09,NNW,331,1.0,5.0,56,0.00,,,0.00,meteohub,2013-08-08 13:27:00,
2013-08-08 07:32:00,71.1,54.5,30.09,NNW,331,3.0,5.0,56,0.00,,,0.00,meteohub,2013-08-08 13:32:00,
2013-08-08 07:37:00,71.2,54.7,30.09,NNW,328,3.0,4.0,56,0.00,,,0.00,meteohub,2013-08-08 13:37:00,
2013-08-08 07:42:00,71.6,55.0,30.10,NW,312,3.0,5.0,56,0.00,,,0.00,meteohub,2013-08-08 13:42:00,
2013-08-08 07:48:00,71.8,55.2,30.10,NW,311,3.0,6.0,56,0.00,,,0.00,meteohub,2013-08-08 13:48:00,
2013-08-08 07:54:00,72.1,55.6,30.10,NW,311,3.0,6.0,56,0.00,,,0.00,meteohub,2013-08-08 13:54:00,
2013-08-08 08:00:00,72.9,55.8,30.10,NW,311,2.0,6.0,55,0.00,,,0.00,meteohub,2013-08-08 14:00:00,
2013-08-08 08:06:00,73.2,55.6,30.10,NW,313,3.0,5.0,54,0.00,,,0.00,meteohub,2013-08-08 14:06:00,
2013-08-08 08:12:00,73.4,56.3,30.10,NW,315,3.0,5.0,55,0.00,,,0.00,meteohub,2013-08-08 14:12:00,
2013-08-08 08:17:00,73.6,56.5,30.10,NW,315,3.0,5.0,55,0.00,,,0.00,meteohub,2013-08-08 14:17:00,
2013-08-08 08:22:00,73.9,56.8,30.10,NW,315,1.0,5.0,55,0.00,,,0.00,meteohub,2013-08-08 14:22:00,
2013-08-08 08:27:00,74.5,57.2,30.10,NW,315,1.0,5.0,55,0.00,,,0.00,meteohub,2013-08-08 14:27:00,
2013-08-08 08:32:00,74.7,57.4,30.10,NW,315,0.0,4.0,55,0.00,,,0.00,meteohub,2013-08-08 14:32:00,
2013-08-08 08:37:00,75.2,57.9,30.10,NW,315,0.0,4.0,55,0.00,,,0.00,meteohub,2013-08-08 14:37:00,
2013-08-08 08:42:00,75.6,58.3,30.11,NW,316,2.0,4.0,55,0.00,,,0.00,meteohub,2013-08-08 14:42:00,
2013-08-08 08:47:00,75.7,58.5,30.11,NNE,25,3.0,5.0,55,0.00,,,0.00,meteohub,2013-08-08 14:47:00,
2013-08-08 08:52:00,75.9,59.2,30.11,NE,53,3.0,5.0,56,0.00,,,0.00,meteohub,2013-08-08 14:52:00,
2013-08-08 08:57:00,76.3,59.0,30.11,NE,53,1.0,5.0,55,0.00,,,0.00,meteohub,2013-08-08 14:57:00,
2013-08-08 09:02:00,76.5,59.2,30.11,NE,53,1.0,5.0,55,0.00,,,0.00,meteohub,2013-08-08 15:02:00,
2013-08-08 09:07:00,76.5,58.6,30.11,NE,53,0.0,5.0,54,0.00,,,0.00,meteohub,2013-08-08 15:07:00,
2013-08-08 09:12:00,77.2,59.7,30.11,NE,53,2.0,4.0,55,0.00,,,0.00,meteohub,2013-08-08 15:12:00,
2013-08-08 09:17:00,78.1,60.1,30.11,NE,53,2.0,4.0,54,0.00,,,0.00,meteohub,2013-08-08 15:17:00,
2013-08-08 09:22:00,78.4,58.8,30.11,North,5,1.0,3.0,51,0.00,,,0.00,meteohub,2013-08-08 15:22:00,
2013-08-08 09:27:00,78.6,58.5,30.11,North,5,3.0,5.0,50,0.00,,,0.00,meteohub,2013-08-08 15:27:00,
2013-08-08 09:32:00,79.5,59.2,30.11,NNE,33,3.0,5.0,50,0.00,,,0.00,meteohub,2013-08-08 15:32:00,
2013-08-08 09:37:00,80.2,59.4,30.11,NE,47,1.0,5.0,49,0.00,,,0.00,meteohub,2013-08-08 15:37:00,
2013-08-08 09:42:00,81.1,59.0,30.12,ENE,67,2.0,5.0,47,0.00,,,0.00,meteohub,2013-08-08 15:42:00,
2013-08-08 09:47:00,81.3,58.6,30.11,NE,49,0.0,6.0,46,0.00,,,0.00,meteohub,2013-08-08 15:47:00,
2013-08-08 09:52:00,81.3,59.2,30.11,NNE,33,2.0,6.0,47,0.00,,,0.00,meteohub,2013-08-08 15:52:00,
2013-08-08 09:57:00,81.1,57.7,30.11,North,355,4.0,6.0,45,0.00,,,0.00,meteohub,2013-08-08 15:57:00,
2013-08-08 10:02:00,81.7,58.3,30.11,NNE,33,3.0,6.0,45,0.00,,,0.00,meteohub,2013-08-08 16:02:00,
2013-08-08 10:07:00,82.2,58.1,30.12,NE,40,4.0,7.0,44,0.00,,,0.00,meteohub,2013-08-08 16:07:00,
2013-08-08 10:12:00,83.1,58.3,30.12,NE,34,1.0,7.0,43,0.00,,,0.00,meteohub,2013-08-08 16:12:00,
2013-08-08 10:17:00,83.1,57.6,30.12,NNE,19,7.0,9.0,42,0.00,,,0.00,meteohub,2013-08-08 16:17:00,
2013-08-08 10:22:00,83.5,57.9,30.12,North,355,1.0,9.0,42,0.00,,,0.00,meteohub,2013-08-08 16:22:00,
2013-08-08 10:27:00,83.7,56.8,30.12,NE,42,5.0,9.0,40,0.00,,,0.00,meteohub,2013-08-08 16:27:00,
2013-08-08 10:32:00,83.8,57.6,30.12,NNE,30,7.0,9.0,41,0.00,,,0.00,meteohub,2013-08-08 16:32:00,
2013-08-08 10:37:00,83.5,57.4,30.12,North,9,7.0,8.0,41,0.00,,,0.00,meteohub,2013-08-08 16:37:00,
2013-08-08 10:42:00,83.7,57.4,30.12,NNE,28,6.0,8.0,41,0.00,,,0.00,meteohub,2013-08-08 16:42:00,
2013-08-08 10:47:00,84.4,57.4,30.12,NNE,19,2.0,8.0,40,0.00,,,0.00,meteohub,2013-08-08 16:47:00,
2013-08-08 10:52:00,84.4,57.4,30.11,NE,46,0.0,7.0,40,0.00,,,0.00,meteohub,2013-08-08 16:52:00,
2013-08-08 10:57:00,84.7,57.7,30.11,ENE,78,2.0,8.0,40,0.00,,,0.00,meteohub,2013-08-08 16:57:00,
2013-08-08 11:02:00,85.8,57.9,30.11,NNE,15,7.0,8.0,39,0.00,,,0.00,meteohub,2013-08-08 17:02:00,
2013-08-08 11:07:00,86.0,57.4,30.11,NE,36,4.0,8.0,38,0.00,,,0.00,meteohub,2013-08-08 17:07:00,
2013-08-08 11:12:00,86.2,58.3,30.11,NNE,29,2.0,8.0,39,0.00,,,0.00,meteohub,2013-08-08 17:12:00,
2013-08-08 11:17:00,85.1,57.4,30.11,SE,131,1.0,8.0,39,0.00,,,0.00,meteohub,2013-08-08 17:17:00,
2013-08-08 11:22:00,86.2,57.6,30.11,SE,131,2.0,7.0,38,0.00,,,0.00,meteohub,2013-08-08 17:22:00,
2013-08-08 11:27:00,86.4,57.7,30.11,SE,132,1.0,5.0,38,0.00,,,0.00,meteohub,2013-08-08 17:27:00,
2013-08-08 11:32:00,87.4,57.9,30.10,NE,47,3.0,3.0,37,0.00,,,0.00,meteohub,2013-08-08 17:32:00,
2013-08-08 11:37:00,87.6,58.1,30.10,NE,40,6.0,8.0,37,0.00,,,0.00,meteohub,2013-08-08 17:37:00,
2013-08-08 11:42:00,88.2,57.9,30.10,East,94,6.0,8.0,36,0.00,,,0.00,meteohub,2013-08-08 17:42:00,
2013-08-08 11:47:00,89.1,57.0,30.10,ENE,67,8.0,8.0,34,0.00,,,0.00,meteohub,2013-08-08 17:47:00,
2013-08-08 11:52:00,88.9,57.7,30.10,NNE,15,0.0,10.0,35,0.00,,,0.00,meteohub,2013-08-08 17:52:00,
2013-08-08 11:57:00,88.7,57.6,30.09,ENE,61,4.0,10.0,35,0.00,,,0.00,meteohub,2013-08-08 17:57:00,
2013-08-08 12:02:00,89.4,56.5,30.09,ENE,73,5.0,10.0,33,0.00,,,0.00,meteohub,2013-08-08 18:02:00,
2013-08-08 12:07:00,89.4,55.8,30.09,NE,36,2.0,11.0,32,0.00,,,0.00,meteohub,2013-08-08 18:07:00,
2013-08-08 12:12:00,88.9,55.2,30.09,NNW,340,0.0,11.0,32,0.00,,,0.00,meteohub,2013-08-08 18:12:00,
2013-08-08 12:17:00,89.2,54.7,30.09,ENE,59,5.0,11.0,31,0.00,,,0.00,meteohub,2013-08-08 18:17:00,
2013-08-08 12:22:00,90.5,54.9,30.09,NNW,338,5.0,10.0,30,0.00,,,0.00,meteohub,2013-08-08 18:22:00,
2013-08-08 12:28:00,89.8,55.0,30.09,NNE,16,6.0,9.0,31,0.00,,,0.00,meteohub,2013-08-08 18:28:00,
2013-08-08 12:34:00,90.0,54.3,30.09,NNW,334,7.0,9.0,30,0.00,,,0.00,meteohub,2013-08-08 18:34:00,
2013-08-08 12:40:00,89.8,54.1,30.09,NNE,15,2.0,9.0,30,0.00,,,0.00,meteohub,2013-08-08 18:40:00,
2013-08-08 12:46:00,91.2,53.6,30.08,NE,55,5.0,12.0,28,0.00,,,0.00,meteohub,2013-08-08 18:46:00,
2013-08-08 12:52:00,91.0,53.4,30.08,NE,51,7.0,13.0,28,0.00,,,0.00,meteohub,2013-08-08 18:52:00,
2013-08-08 12:57:00,92.1,54.3,30.08,ENE,57,5.0,13.0,28,0.00,,,0.00,meteohub,2013-08-08 18:57:00,
2013-08-08 13:02:00,91.9,53.2,30.08,NNE,30,1.0,10.0,27,0.00,,,0.00,meteohub,2013-08-08 19:02:00,
2013-08-08 13:07:00,91.9,53.2,30.08,ENE,69,3.0,9.0,27,0.00,,,0.00,meteohub,2013-08-08 19:07:00,
2013-08-08 13:12:00,92.1,51.3,30.08,NNW,336,7.0,8.0,25,0.00,,,0.00,meteohub,2013-08-08 19:12:00,
2013-08-08 13:17:00,92.7,50.5,30.07,WNW,299,6.0,12.0,24,0.00,,,0.00,meteohub,2013-08-08 19:17:00,
2013-08-08 13:22:00,93.7,50.4,30.07,WSW,257,7.0,12.0,23,0.00,,,0.00,meteohub,2013-08-08 19:22:00,
2013-08-08 13:27:00,94.5,48.6,30.07,NW,304,12.0,15.0,21,0.00,,,0.00,meteohub,2013-08-08 19:27:00,
2013-08-08 13:32:00,93.7,52.5,30.07,NNW,342,3.0,17.0,25,0.00,,,0.00,meteohub,2013-08-08 19:32:00,
2013-08-08 13:37:00,93.7,50.4,30.07,NW,313,10.0,17.0,23,0.00,,,0.00,meteohub,2013-08-08 19:37:00,
2013-08-08 13:42:00,93.9,49.3,30.06,North,350,5.0,17.0,22,0.00,,,0.00,meteohub,2013-08-08 19:42:00,
2013-08-08 13:47:00,93.7,47.8,30.06,WNW,294,10.0,13.0,21,0.00,,,0.00,meteohub,2013-08-08 19:47:00,
2013-08-08 13:53:00,94.5,47.1,30.06,West,270,10.0,15.0,20,0.00,,,0.00,meteohub,2013-08-08 19:53:00,
2013-08-08 13:59:00,94.5,47.1,30.06,West,280,4.0,18.0,20,0.00,,,0.00,meteohub,2013-08-08 19:59:00,
2013-08-08 14:05:00,94.8,47.5,30.06,NNW,340,9.0,18.0,20,0.00,,,0.00,meteohub,2013-08-08 20:05:00,
2013-08-08 14:10:00,96.3,47.3,30.06,West,276,12.0,14.0,19,0.00,,,0.00,meteohub,2013-08-08 20:10:00,
2013-08-08 14:16:00,95.7,46.9,30.06,NW,313,5.0,16.0,19,0.00,,,0.00,meteohub,2013-08-08 20:16:00,
2013-08-08 14:22:00,94.6,47.3,30.06,NW,316,9.0,16.0,20,0.00,,,0.00,meteohub,2013-08-08 20:22:00,
2013-08-08 14:27:00,95.5,46.8,30.05,West,265,14.0,16.0,19,0.00,,,0.00,meteohub,2013-08-08 20:27:00,
2013-08-08 14:32:00,96.1,47.1,30.05,WSW,248,9.0,18.0,19,0.00,,,0.00,meteohub,2013-08-08 20:32:00,
2013-08-08 14:37:00,96.1,45.7,30.05,West,260,3.0,18.0,18,0.00,,,0.00,meteohub,2013-08-08 20:37:00,
2013-08-08 14:42:00,96.3,47.3,30.05,WNW,294,7.0,18.0,19,0.00,,,0.00,meteohub,2013-08-08 20:42:00,
2013-08-08 14:47:00,95.7,46.9,30.05,West,279,9.0,15.0,19,0.00,,,0.00,meteohub,2013-08-08 20:47:00,
2013-08-08 14:52:00,95.5,46.8,30.05,West,279,5.0,16.0,19,0.00,,,0.00,meteohub,2013-08-08 20:52:00,
2013-08-08 14:57:00,95.4,46.6,30.04,NW,314,4.0,16.0,19,0.00,,,0.00,meteohub,2013-08-08 20:57:00,
2013-08-08 15:02:00,95.7,46.9,30.04,NW,317,11.0,16.0,19,0.00,,,0.00,meteohub,2013-08-08 21:02:00,
2013-08-08 15:07:00,95.7,45.5,30.04,NW,319,13.0,13.0,18,0.00,,,0.00,meteohub,2013-08-08 21:07:00,
2013-08-08 15:13:00,95.7,45.5,30.04,WNW,300,0.0,16.0,18,0.00,,,0.00,meteohub,2013-08-08 21:13:00,
2013-08-08 15:19:00,97.0,46.4,30.03,WSW,241,31.0,31.0,18,0.00,,,0.00,meteohub,2013-08-08 21:19:00,
2013-08-08 15:24:00,95.9,49.6,30.04,NNE,14,12.0,34.0,21,0.00,,,0.00,meteohub,2013-08-08 21:24:00,
2013-08-08 15:30:00,94.8,50.0,30.04,North,9,3.0,34.0,22,0.00,,,0.00,meteohub,2013-08-08 21:30:00,
2013-08-08 15:36:00,95.9,49.6,30.03,NNE,31,4.0,14.0,21,0.00,,,0.00,meteohub,2013-08-08 21:36:00,
2013-08-08 15:42:00,95.5,49.5,30.03,NE,49,7.0,11.0,21,0.00,,,0.00,meteohub,2013-08-08 21:42:00,
2013-08-08 15:47:00,95.7,45.5,30.03,NW,314,5.0,11.0,18,0.00,,,0.00,meteohub,2013-08-08 21:47:00,
2013-08-08 15:53:00,95.4,45.1,30.03,West,269,6.0,11.0,18,0.00,,,0.00,meteohub,2013-08-08 21:53:00,
2013-08-08 15:59:00,95.2,45.0,30.02,West,275,0.0,11.0,18,0.00,,,0.00,meteohub,2013-08-08 21:59:00,
2013-08-08 16:05:00,96.1,44.2,30.02,West,279,5.0,11.0,17,0.00,,,0.00,meteohub,2013-08-08 22:05:00,
2013-08-08 16:11:00,96.6,46.2,30.02,WNW,282,11.0,11.0,18,0.00,,,0.00,meteohub,2013-08-08 22:11:00,
2013-08-08 16:16:00,96.8,46.2,30.02,SW,221,7.0,13.0,18,0.00,,,0.00,meteohub,2013-08-08 22:16:00,
2013-08-08 16:21:00,95.5,45.3,30.02,WNW,303,3.0,13.0,18,0.00,,,0.00,meteohub,2013-08-08 22:21:00,
2013-08-08 16:27:00,95.2,46.4,30.02,NW,309,8.0,13.0,19,0.00,,,0.00,meteohub,2013-08-08 22:27:00,
2013-08-08 16:32:00,95.9,45.5,30.02,NW,319,5.0,10.0,18,0.00,,,0.00,meteohub,2013-08-08 22:32:00,
2013-08-08 16:37:00,96.3,45.9,30.02,WNW,285,5.0,12.0,18,0.00,,,0.00,meteohub,2013-08-08 22:37:00,
2013-08-08 16:42:00,96.3,45.9,30.01,NW,324,9.0,12.0,18,0.00,,,0.00,meteohub,2013-08-08 22:42:00,
2013-08-08 16:47:00,95.0,46.2,30.01,West,267,3.0,13.0,19,0.00,,,0.00,meteohub,2013-08-08 22:47:00,
2013-08-08 16:52:00,95.7,46.9,30.01,WNW,283,6.0,13.0,19,0.00,,,0.00,meteohub,2013-08-08 22:52:00,
2013-08-08 16:57:00,95.2,47.8,30.01,WSW,258,10.0,13.0,20,0.00,,,0.00,meteohub,2013-08-08 22:57:00,
2013-08-08 17:02:00,96.3,47.3,30.01,WSW,256,12.0,12.0,19,0.00,,,0.00,meteohub,2013-08-08 23:02:00,
2013-08-08 17:07:00,96.4,47.5,30.01,WSW,240,5.0,15.0,19,0.00,,,0.00,meteohub,2013-08-08 23:07:00,
2013-08-08 17:12:00,96.3,47.3,30.01,SW,225,7.0,15.0,19,0.00,,,0.00,meteohub,2013-08-08 23:12:00,
2013-08-08 17:17:00,96.4,47.5,30.01,West,271,4.0,15.0,19,0.00,,,0.00,meteohub,2013-08-08 23:17:00,
2013-08-08 17:22:00,96.6,46.2,30.00,WSW,248,10.0,12.0,18,0.00,,,0.00,meteohub,2013-08-08 23:22:00,
2013-08-08 17:28:00,95.9,46.9,30.00,SW,231,5.0,11.0,19,0.00,,,0.00,meteohub,2013-08-08 23:28:00,
2013-08-08 17:34:00,94.5,47.1,30.00,WNW,284,3.0,11.0,20,0.00,,,0.00,meteohub,2013-08-08 23:34:00,
2013-08-08 17:40:00,93.9,46.8,30.00,NW,311,4.0,11.0,20,0.00,,,0.00,meteohub,2013-08-08 23:40:00,
2013-08-08 17:46:00,93.9,46.8,30.00,NW,323,1.0,7.0,20,0.00,,,0.00,meteohub,2013-08-08 23:46:00,
2013-08-08 17:52:00,93.7,46.6,30.00,NW,313,7.0,10.0,20,0.00,,,0.00,meteohub,2013-08-08 23:52:00,
2013-08-08 17:57:00,93.4,47.7,29.99,NW,325,0.0,10.0,21,0.00,,,0.00,meteohub,2013-08-08 23:57:00,
2013-08-08 18:02:00,93.4,46.4,29.99,NW,325,0.0,10.0,20,0.00,,,0.00,meteohub,2013-08-09 00:02:00,
2013-08-08 18:07:00,93.6,46.4,29.99,South,185,3.0,9.0,20,0.00,,,0.00,meteohub,2013-08-09 00:07:00,
2013-08-08 18:12:00,93.2,47.5,29.99,SSW,208,7.0,7.0,21,0.00,,,0.00,meteohub,2013-08-09 00:12:00,
2013-08-08 18:17:00,94.3,47.1,29.99,West,277,6.0,12.0,20,0.00,,,0.00,meteohub,2013-08-09 00:17:00,
2013-08-08 18:22:00,94.5,47.1,29.99,West,275,5.0,12.0,20,0.00,,,0.00,meteohub,2013-08-09 00:22:00,
2013-08-08 18:27:00,94.1,46.9,29.99,WNW,293,0.0,12.0,20,0.00,,,0.00,meteohub,2013-08-09 00:27:00,
2013-08-08 18:32:00,93.7,46.6,29.99,NNW,330,3.0,8.0,20,0.00,,,0.00,meteohub,2013-08-09 00:32:00,
2013-08-08 18:38:00,94.3,47.1,29.99,WNW,290,8.0,8.0,20,0.00,,,0.00,meteohub,2013-08-09 00:38:00,
2013-08-08 18:44:00,94.3,45.7,29.98,West,261,6.0,8.0,19,0.00,,,0.00,meteohub,2013-08-09 00:44:00,
2013-08-08 18:50:00,94.3,45.7,29.98,West,262,4.0,12.0,19,0.00,,,0.00,meteohub,2013-08-09 00:50:00,
2013-08-08 18:55:00,93.9,46.8,29.98,WNW,288,8.0,12.0,20,0.00,,,0.00,meteohub,2013-08-09 00:55:00,
2013-08-08 19:01:00,93.7,46.6,29.99,NW,313,6.0,12.0,20,0.00,,,0.00,meteohub,2013-08-09 01:01:00,
2013-08-08 19:07:00,93.9,46.8,29.99,NW,304,5.0,12.0,20,0.00,,,0.00,meteohub,2013-08-09 01:07:00,
2013-08-08 19:12:00,93.9,46.8,29.99,West,271,7.0,10.0,20,0.00,,,0.00,meteohub,2013-08-09 01:12:00,
2013-08-08 19:17:00,93.7,46.6,29.99,West,274,6.0,10.0,20,0.00,,,0.00,meteohub,2013-08-09 01:17:00,
2013-08-08 19:23:00,93.4,46.4,29.99,West,267,3.0,11.0,20,0.00,,,0.00,meteohub,2013-08-09 01:23:00,
2013-08-08 19:28:00,92.8,47.1,29.99,SW,223,7.0,11.0,21,0.00,,,0.00,meteohub,2013-08-09 01:28:00,
2013-08-08 19:34:00,92.3,46.8,29.99,SSW,206,3.0,11.0,21,0.00,,,0.00,meteohub,2013-08-09 01:34:00,
2013-08-08 19:40:00,91.8,46.2,29.99,WSW,253,5.0,11.0,21,0.00,,,0.00,meteohub,2013-08-09 01:40:00,
2013-08-08 19:46:00,91.4,47.3,29.99,WSW,253,2.0,11.0,22,0.00,,,0.00,meteohub,2013-08-09 01:46:00,
2013-08-08 19:52:00,91.0,45.7,29.99,WSW,239,6.0,8.0,21,0.00,,,0.00,meteohub,2013-08-09 01:52:00,
2013-08-08 19:57:00,90.9,46.8,29.99,WSW,252,3.0,9.0,22,0.00,,,0.00,meteohub,2013-08-09 01:57:00,
2013-08-08 20:02:00,90.3,46.4,29.99,WSW,251,3.0,9.0,22,0.00,,,0.00,meteohub,2013-08-09 02:02:00,
2013-08-08 20:07:00,90.0,46.0,29.99,WSW,248,4.0,9.0,22,0.00,,,0.00,meteohub,2013-08-09 02:07:00,
2013-08-08 20:13:00,89.6,45.7,29.99,WSW,248,5.0,8.0,22,0.00,,,0.00,meteohub,2013-08-09 02:13:00,
2013-08-08 20:19:00,89.2,46.6,29.99,WSW,253,5.0,7.0,23,0.00,,,0.00,meteohub,2013-08-09 02:19:00,
2013-08-08 20:26:00,88.9,46.2,29.99,WSW,241,6.0,7.0,23,0.00,,,0.00,meteohub,2013-08-09 02:26:00,
2013-08-08 20:31:00,88.3,45.9,29.99,West,262,7.0,7.0,23,0.00,,,0.00,meteohub,2013-08-09 02:31:00,
2013-08-08 20:37:00,88.2,45.7,29.99,WSW,253,4.0,8.0,23,0.00,,,0.00,meteohub,2013-08-09 02:37:00,
2013-08-08 20:42:00,88.0,45.5,30.00,SW,234,5.0,8.0,23,0.00,,,0.00,meteohub,2013-08-09 02:42:00,
2013-08-08 20:47:00,87.6,45.3,30.00,WSW,242,7.0,8.0,23,0.00,,,0.00,meteohub,2013-08-09 02:47:00,
2013-08-08 20:52:00,87.4,45.1,30.00,SW,235,2.0,9.0,23,0.00,,,0.00,meteohub,2013-08-09 02:52:00,
2013-08-08 20:57:00,87.3,46.0,30.00,WSW,244,5.0,9.0,24,0.00,,,0.00,meteohub,2013-08-09 02:57:00,
2013-08-08 21:03:00,86.7,45.7,30.01,WSW,246,4.0,9.0,24,0.00,,,0.00,meteohub,2013-08-09 03:03:00,
2013-08-08 21:09:00,86.4,45.3,30.01,WSW,247,3.0,6.0,24,0.00,,,0.00,meteohub,2013-08-09 03:09:00,
2013-08-08 21:14:00,86.0,45.0,30.01,SW,234,6.0,6.0,24,0.00,,,0.00,meteohub,2013-08-09 03:14:00,
2013-08-08 21:20:00,85.6,44.8,30.01,SW,229,2.0,7.0,24,0.00,,,0.00,meteohub,2013-08-09 03:20:00,
2013-08-08 21:25:00,85.5,45.7,30.01,WSW,244,5.0,8.0,25,0.00,,,0.00,meteohub,2013-08-09 03:25:00,
2013-08-08 21:31:00,85.3,45.5,30.02,WSW,255,3.0,8.0,25,0.00,,,0.00,meteohub,2013-08-09 03:31:00,
2013-08-08 21:36:00,84.9,45.1,30.02,WSW,242,5.0,8.0,25,0.00,,,0.00,meteohub,2013-08-09 03:36:00,
2013-08-08 21:42:00,84.6,45.0,30.02,SW,223,3.0,8.0,25,0.00,,,0.00,meteohub,2013-08-09 03:42:00,
2013-08-08 21:47:00,84.4,45.7,30.02,WSW,238,6.0,7.0,26,0.00,,,0.00,meteohub,2013-08-09 03:47:00,
2013-08-08 21:52:00,84.0,45.5,30.02,WSW,255,6.0,8.0,26,0.00,,,0.00,meteohub,2013-08-09 03:52:00,
2013-08-08 21:57:00,83.8,45.3,30.02,West,260,7.0,8.0,26,0.00,,,0.00,meteohub,2013-08-09 03:57:00,
2013-08-08 22:01:00,83.7,45.1,30.03,WSW,240,4.0,8.0,26,0.00,,,0.00,meteohub,2013-08-09 04:01:00,
2013-08-08 22:02:00,83.7,45.1,30.03,WSW,248,7.0,8.0,26,0.00,,,0.00,meteohub,2013-08-09 04:02:00,
2013-08-08 22:06:00,83.5,45.0,30.03,SW,231,4.0,8.0,26,0.00,,,0.00,meteohub,2013-08-09 04:06:00,
2013-08-08 22:07:00,83.5,45.0,30.03,SW,236,4.0,8.0,26,0.00,,,0.00,meteohub,2013-08-09 04:07:00,
2013-08-08 22:11:00,83.3,44.8,30.03,WSW,240,2.0,8.0,26,0.00,,,0.00,meteohub,2013-08-09 04:11:00,
2013-08-08 22:17:00,83.3,43.9,30.03,WSW,242,4.0,8.0,25,0.00,,,0.00,meteohub,2013-08-09 04:17:00,
2013-08-08 22:22:00,83.1,43.7,30.03,WSW,241,5.0,8.0,25,0.00,,,0.00,meteohub,2013-08-09 04:22:00,
2013-08-08 22:27:00,82.9,43.5,30.04,SW,234,5.0,8.0,25,0.00,,,0.00,meteohub,2013-08-09 04:27:00,
2013-08-08 22:32:00,82.9,43.5,30.04,WSW,252,5.0,8.0,25,0.00,,,0.00,meteohub,2013-08-09 04:32:00,
2013-08-08 22:37:00,82.8,43.3,30.04,WSW,248,5.0,8.0,25,0.00,,,0.00,meteohub,2013-08-09 04:37:00,
2013-08-08 22:42:00,82.8,43.3,30.04,WSW,248,0.0,7.0,25,0.00,,,0.00,meteohub,2013-08-09 04:42:00,
2013-08-08 22:47:00,82.4,44.1,30.04,SW,216,2.0,6.0,26,0.00,,,0.00,meteohub,2013-08-09 04:47:00,
2013-08-08 22:52:00,81.3,44.1,30.04,SW,228,3.0,7.0,27,0.00,,,0.00,meteohub,2013-08-09 04:52:00,
2013-08-08 22:57:00,81.0,44.8,30.04,WSW,256,0.0,7.0,28,0.00,,,0.00,meteohub,2013-08-09 04:57:00,
2013-08-08 23:02:00,80.8,44.6,30.04,WSW,256,0.0,7.0,28,0.00,,,0.00,meteohub,2013-08-09 05:02:00,
2013-08-08 23:07:00,80.1,45.9,30.05,WSW,256,0.0,5.0,30,0.00,,,0.00,meteohub,2013-08-09 05:07:00,
2013-08-08 23:12:00,79.3,46.0,30.05,SW,214,3.0,3.0,31,0.00,,,0.00,meteohub,2013-08-09 05:12:00,
2013-08-08 23:17:00,79.3,44.2,30.05,SSW,203,0.0,4.0,29,0.00,,,0.00,meteohub,2013-08-09 05:17:00,
2013-08-08 23:22:00,79.7,44.6,30.06,SSW,203,1.0,4.0,29,0.00,,,0.00,meteohub,2013-08-09 05:22:00,
2013-08-08 23:27:00,80.1,45.0,30.06,SSW,206,2.0,4.0,29,0.00,,,0.00,meteohub,2013-08-09 05:27:00,
2013-08-08 23:32:00,80.2,44.2,30.06,SSW,207,1.0,4.0,28,0.00,,,0.00,meteohub,2013-08-09 05:32:00,
2013-08-08 23:37:00,80.4,44.2,30.06,SSW,207,1.0,4.0,28,0.00,,,0.00,meteohub,2013-08-09 05:37:00,
2013-08-08 23:42:00,80.4,43.3,30.06,SW,217,0.0,4.0,27,0.00,,,0.00,meteohub,2013-08-09 05:42:00,
2013-08-08 23:47:00,80.1,45.0,30.06,SW,217,1.0,4.0,29,0.00,,,0.00,meteohub,2013-08-09 05:47:00,
2013-08-08 23:52:00,79.2,45.9,30.06,SW,217,3.0,4.0,31,0.00,,,0.00,meteohub,2013-08-09 05:52:00,
2013-08-08 23:57:00,78.6,45.5,30.06,SW,217,0.0,3.0,31,0.00,,,0.00,meteohub,2013-08-09 05:57:00,